Lawrence, Pennsylvania
Current Conditions -  °F | °C
As of 8:53 AM on Friday 19 Dec 2014 (Local Time) from KAGC Reporting Station
Haze Haze  
Wind Chill: 20°   Ceiling: 1000
Heat Index: 28°   Visibility: 2mi
Dew Point: 23°   Wind: 8mph
Humidity: 81%   Direction: 260°W
Pressure: 30.19"   Gusts: NA
Location:  40.3°N, 80.12°W
Report Text: KAGC 191353Z 26007KT 2SM BR BKN010 OVC024 M02/M05 A3019 RMK AO2 CIG 007V015 SLP242 T10221050
Loading
Personal Weather Stations






























Interactive Weather Map New forecast layout! Learn more

10-Day Weather Forecast

Advertisements
Track Severe Weather on mobile